Terminal Aerodrome Forecast
Issued by NWS Charleston, WV

Current Version | Previous Version | Graphics & Text | Print | Product List | Glossary On
Versions: 1 2 3 4 5 6 7 8 9 10 11 12 13 14 15 16 17 18 19 20 21 22 23 24 25 26 27
473
FTUS41 KRLX 182322
TAFCRW
TAF
KCRW 182322Z 1900/1924 26007KT P6SM SCT060 BKN090 OVC110
     FM190200 00000KT 6SM -SHRA OVC050
     FM190400 00000KT 6SM -SHRA OVC030
     FM190700 00000KT 5SM -SHRA OVC014
     FM191200 00000KT P6SM OVC022
     FM191700 27005KT P6SM SCT028=

USA.gov is the U.S. government's official web portal to all federal, state and local government web resources and services.